Time;durP1;ratioP1;P1;durP2;ratioP2;P2;SDS_P1;SDS_P2;PMS_P1;PMS_P2;Temp;Humidity;BMP_temperature;BMP_pressure;BME280_temperature;BME280_humidity;BME280_pressure;Samples;Min_cycle;Max_cycle;Signal;HPM_P1;HPM_P2
2023/04/27 00:00:10;;;;;;;15.88;5.05;;;;;;;13.99;57.95;98657.66;5092058;28;20020;-47
2023/04/27 00:02:37;;;;;;;15.10;3.95;;;;;;;13.94;58.45;98668.06;5092081;28;20024;-47
2023/04/27 00:05:04;;;;;;;20.42;4.47;;;;;;;13.72;58.81;98670.34;5090728;28;20370;-47
2023/04/27 00:07:30;;;;;;;11.45;3.92;;;;;;;13.61;59.46;98660.56;5107667;28;20027;-47
2023/04/27 00:09:56;;;;;;;19.02;4.50;;;;;;;13.71;59.04;98666.91;5107572;28;20080;-47
2023/04/27 00:12:22;;;;;;;7.13;3.35;;;;;;;13.73;58.98;98669.34;5091926;28;20390;-47
2023/04/27 00:14:48;;;;;;;10.50;3.97;;;;;;;13.66;59.30;98664.16;5091972;28;20024;-47
2023/04/27 00:17:14;;;;;;;6.13;3.78;;;;;;;13.58;59.67;98652.06;5091842;28;20031;-47
2023/04/27 00:19:40;;;;;;;11.70;4.10;;;;;;;13.51;59.96;98658.44;5107493;28;20485;-47
2023/04/27 00:22:07;;;;;;;21.27;5.25;;;;;;;13.59;60.32;98666.03;5090626;28;20106;-47
2023/04/27 00:24:33;;;;;;;16.73;5.20;;;;;;;13.81;59.77;98663.75;5091912;28;20059;-47
2023/04/27 00:27:00;;;;;;;10.48;4.60;;;;;;;13.87;59.15;98659.44;5107497;28;20076;-47
2023/04/27 00:29:26;;;;;;;11.90;4.13;;;;;;;13.58;58.81;98665.25;5092083;28;20027;-47
2023/04/27 00:31:51;;;;;;;16.92;6.10;;;;;;;13.34;60.05;98652.91;5107310;28;20024;-47
2023/04/27 00:34:17;;;;;;;15.98;5.43;;;;;;;13.39;60.12;98658.34;5091705;28;20035;-47
2023/04/27 00:36:43;;;;;;;8.10;3.80;;;;;;;13.44;60.13;98652.41;5091970;28;20499;-47
2023/04/27 00:39:09;;;;;;;13.35;4.63;;;;;;;13.46;59.90;98653.00;5090213;28;20425;-47
2023/04/27 00:41:38;;;;;;;19.10;4.07;;;;;;;13.43;60.36;98648.19;5090431;28;20054;-47
2023/04/27 00:44:04;;;;;;;13.25;3.97;;;;;;;13.50;60.48;98654.16;5073531;28;20532;-47
2023/04/27 00:46:31;;;;;;;16.55;5.13;;;;;;;13.63;59.83;98651.38;5090329;28;20501;-47
2023/04/27 00:48:58;;;;;;;7.93;4.18;;;;;;;13.65;59.53;98657.25;5107246;28;20027;-47
2023/04/27 00:51:29;;;;;;;13.15;4.13;;;;;;;13.65;59.21;98662.53;5108181;28;20032;-47
2023/04/27 00:53:57;;;;;;;13.07;4.40;;;;;;;13.46;59.14;98663.53;5095639;28;20028;-47
2023/04/27 00:56:23;;;;;;;12.02;4.47;;;;;;;13.37;60.01;98657.75;5095409;28;20393;-47
2023/04/27 00:58:49;;;;;;;10.38;3.97;;;;;;;13.44;59.75;98653.22;5111098;28;20027;-47
2023/04/27 01:01:15;;;;;;;25.88;5.53;;;;;;;13.27;59.52;98652.16;5094283;28;20101;-47
2023/04/27 01:03:41;;;;;;;13.02;3.63;;;;;;;13.29;60.06;98648.31;5111073;28;20408;-47
2023/04/27 01:06:07;;;;;;;7.20;3.75;;;;;;;13.44;60.19;98649.78;5095288;28;20073;-47
2023/04/27 01:08:33;;;;;;;13.95;3.63;;;;;;;13.49;59.90;98652.56;5095327;28;20016;-47
2023/04/27 01:10:58;;;;;;;9.55;4.00;;;;;;;13.57;59.94;98641.72;5095143;28;20028;-47
2023/04/27 01:13:24;;;;;;;7.13;3.42;;;;;;;13.74;59.44;98650.66;5110822;28;20114;-47
2023/04/27 01:15:50;;;;;;;7.18;3.40;;;;;;;13.89;58.82;98644.19;5110833;28;20023;-47
2023/04/27 01:18:16;;;;;;;10.27;3.60;;;;;;;13.90;58.38;98643.16;5095047;28;20462;-47
2023/04/27 01:20:42;;;;;;;20.70;3.80;;;;;;;13.91;58.25;98648.19;5095052;28;20024;-47
2023/04/27 01:23:07;;;;;;;10.45;3.20;;;;;;;13.85;57.89;98651.72;5110649;28;20035;-47
2023/04/27 01:25:33;;;;;;;8.80;3.40;;;;;;;13.56;58.36;98656.75;5094948;28;20028;-47
2023/04/27 01:27:59;;;;;;;7.03;4.18;;;;;;;13.28;59.16;98659.84;5094871;28;20019;-47
2023/04/27 01:30:27;;;;;;;8.05;3.38;;;;;;;13.04;60.00;98664.13;5110460;28;20035;-47
2023/04/27 01:32:53;;;;;;;11.05;4.03;;;;;;;13.04;60.49;98665.94;5095082;28;20020;-47
2023/04/27 01:35:19;;;;;;;13.25;4.35;;;;;;;13.18;60.67;98659.56;5094751;28;20066;-47
2023/04/27 01:37:45;;;;;;;9.40;3.63;;;;;;;13.46;60.10;98668.81;5110430;28;20049;-47
2023/04/27 01:40:11;;;;;;;5.32;2.95;;;;;;;13.68;58.58;98666.53;5094611;28;20044;-47
2023/04/27 01:42:37;;;;;;;13.45;4.55;;;;;;;13.62;58.85;98665.59;5110320;28;20020;-47
2023/04/27 01:45:04;;;;;;;10.27;4.00;;;;;;;13.68;58.70;98669.19;5094658;28;20027;-47
2023/04/27 01:47:29;;;;;;;8.27;3.70;;;;;;;13.71;58.32;98660.84;5110279;28;20070;-47
2023/04/27 01:49:55;;;;;;;10.30;3.78;;;;;;;13.71;58.31;98661.63;5094472;28;20024;-47
2023/04/27 01:52:21;;;;;;;12.95;4.07;;;;;;;13.59;58.47;98666.03;5076267;28;20501;-47
2023/04/27 01:54:46;;;;;;;7.90;3.58;;;;;;;13.46;58.27;98676.72;5110140;28;20024;-47
2023/04/27 01:57:13;;;;;;;11.15;4.10;;;;;;;13.28;59.14;98672.19;5094342;28;20022;-47
2023/04/27 01:59:39;;;;;;;12.98;3.90;;;;;;;13.25;59.75;98672.66;5094292;28;20405;-47
2023/04/27 02:02:04;;;;;;;12.90;3.85;;;;;;;13.33;59.89;98675.03;5092853;28;20024;-47
2023/04/27 02:04:30;;;;;;;6.93;3.88;;;;;;;13.46;59.67;98672.28;5109910;28;20035;-47
2023/04/27 02:06:56;;;;;;;6.22;3.38;;;;;;;13.47;59.26;98671.25;5109887;28;20501;-47
2023/04/27 02:09:22;;;;;;;8.77;3.58;;;;;;;13.52;59.14;98673.19;5094141;28;20055;-47
2023/04/27 02:11:47;;;;;;;12.10;3.97;;;;;;;13.55;58.94;98665.66;5093995;28;20016;-47
2023/04/27 02:14:13;;;;;;;9.38;3.75;;;;;;;13.50;58.92;98664.72;5094043;28;20095;-47
2023/04/27 02:16:39;;;;;;;7.50;3.63;;;;;;;13.63;59.10;98664.56;5093952;28;20031;-47
2023/04/27 02:19:05;;;;;;;8.77;4.57;;;;;;;13.78;58.22;98665.00;5109594;28;20067;-47
2023/04/27 02:21:31;;;;;;;17.60;4.05;;;;;;;13.76;58.42;98667.06;5093933;28;20428;-47
2023/04/27 02:23:57;;;;;;;16.10;3.40;;;;;;;13.81;58.37;98657.69;5093809;28;20396;-47
2023/04/27 02:26:28;;;;;;;10.93;4.18;;;;;;;13.91;57.95;98650.84;5093709;28;20107;-47
2023/04/27 02:28:55;;;;;;;9.50;4.03;;;;;;;13.87;57.75;98659.44;5093813;28;20024;-47
2023/04/27 02:31:21;;;;;;;8.15;3.35;;;;;;;13.84;57.65;98665.94;5093822;28;20426;-47
2023/04/27 02:33:47;;;;;;;6.72;3.88;;;;;;;13.81;57.76;98665.59;5109332;28;20055;-48
2023/04/27 02:36:13;;;;;;;7.05;3.40;;;;;;;13.86;57.90;98669.16;5093496;28;20493;-47
2023/04/27 02:38:39;;;;;;;9.00;3.42;;;;;;;13.84;57.55;98665.13;5109005;28;20422;-47
2023/04/27 02:41:05;;;;;;;11.07;3.58;;;;;;;13.79;57.61;98666.59;5093715;28;20016;-47
2023/04/27 02:43:30;;;;;;;9.25;3.58;;;;;;;13.93;57.64;98669.91;5093419;28;20027;-47
2023/04/27 02:46:00;;;;;;;13.02;4.45;;;;;;;14.14;57.46;98667.78;5093345;28;20028;-47
2023/04/27 02:48:26;;;;;;;8.65;3.50;;;;;;;14.22;56.32;98664.84;5109004;28;20047;-47
2023/04/27 02:50:52;;;;;;;8.68;3.90;;;;;;;14.08;56.37;98661.56;5093248;28;20024;-47
2023/04/27 02:53:17;;;;;;;12.05;3.42;;;;;;;13.85;56.95;98669.41;5093288;28;20043;-47
2023/04/27 02:55:47;;;;;;;13.82;4.20;;;;;;;13.81;57.67;98669.03;5108876;28;20085;-47
2023/04/27 02:58:13;;;;;;;7.70;3.33;;;;;;;13.77;57.80;98665.22;5108870;28;20028;-47
2023/04/27 03:00:40;;;;;;;11.98;3.85;;;;;;;13.65;58.00;98662.53;5108791;28;20108;-47
2023/04/27 03:03:06;;;;;;;13.50;3.63;;;;;;;13.46;58.34;98658.25;5108704;28;20505;-47
2023/04/27 03:05:33;;;;;;;6.75;3.58;;;;;;;13.32;58.90;98658.44;5093006;28;20024;-47
2023/04/27 03:07:59;;;;;;;7.50;3.75;;;;;;;13.21;59.19;98664.38;5093001;28;20024;-47
2023/04/27 03:10:24;;;;;;;9.38;4.35;;;;;;;13.17;59.80;98664.00;5092825;28;20024;-47
2023/04/27 03:12:50;;;;;;;9.10;4.00;;;;;;;13.12;59.85;98652.50;5108466;28;20630;-47
2023/04/27 03:15:16;;;;;;;8.30;3.30;;;;;;;12.96;60.35;98654.69;5092290;28;20020;-47
2023/04/27 03:17:42;;;;;;;11.52;4.03;;;;;;;12.79;60.70;98656.22;5093176;28;20039;-47
2023/04/27 03:20:09;;;;;;;7.30;3.50;;;;;;;12.77;61.60;98651.16;5092717;28;20024;-47
2023/04/27 03:22:37;;;;;;;10.48;4.30;;;;;;;12.84;61.63;98652.94;5108353;28;20059;-47
2023/04/27 03:25:04;;;;;;;9.00;3.60;;;;;;;12.86;61.23;98653.53;5092799;28;20073;-47
2023/04/27 03:27:30;;;;;;;7.03;3.40;;;;;;;12.83;61.09;98656.63;5092885;28;20085;-48
2023/04/27 03:29:56;;;;;;;10.32;4.40;;;;;;;12.82;61.43;98661.09;5092502;28;20015;-47
2023/04/27 03:32:21;;;;;;;8.88;4.68;;;;;;;12.88;61.16;98657.59;5092531;28;20050;-47
2023/04/27 03:34:47;;;;;;;10.77;5.05;;;;;;;12.76;61.07;98661.94;5108170;28;20028;-47
2023/04/27 03:37:13;;;;;;;9.88;5.28;;;;;;;12.55;61.37;98655.19;5108042;28;20038;-47
2023/04/27 03:39:39;;;;;;;11.10;5.97;;;;;;;12.46;62.04;98661.75;5092260;28;20119;-47
2023/04/27 03:42:05;;;;;;;12.73;6.85;;;;;;;12.36;62.43;98670.91;5108011;28;20023;-47
2023/04/27 03:44:32;;;;;;;16.40;6.00;;;;;;;12.24;62.51;98664.72;5092315;28;20429;-47
2023/04/27 03:46:58;;;;;;;9.00;4.85;;;;;;;12.13;63.62;98660.94;5092292;28;20023;-47
2023/04/27 03:49:24;;;;;;;13.43;4.38;;;;;;;12.04;64.13;98667.47;5092277;28;20024;-47
2023/04/27 03:51:50;;;;;;;7.82;3.72;;;;;;;12.06;64.42;98662.00;5092140;28;20482;-47
2023/04/27 03:54:16;;;;;;;9.48;3.85;;;;;;;12.06;64.34;98656.72;5090876;28;20027;-47
2023/04/27 03:56:43;;;;;;;8.10;4.20;;;;;;;12.03;64.29;98655.31;5107816;28;20558;-47
2023/04/27 03:59:09;;;;;;;7.90;4.28;;;;;;;12.05;65.04;98661.16;5092128;28;20493;-47
2023/04/27 04:01:36;;;;;;;9.48;3.80;;;;;;;12.10;64.32;98660.56;5092001;28;20024;-47
2023/04/27 04:04:01;;;;;;;11.15;4.28;;;;;;;12.12;64.42;98661.94;5092033;28;20020;-47
2023/04/27 04:06:27;;;;;;;10.70;3.67;;;;;;;12.09;65.02;98672.06;5092033;28;20489;-47
2023/04/27 04:08:53;;;;;;;13.43;3.80;;;;;;;12.16;64.99;98668.41;5092033;28;20393;-47
2023/04/27 04:11:20;;;;;;;15.55;3.78;;;;;;;12.31;64.40;98667.31;5090526;28;20030;-47
2023/04/27 04:13:46;;;;;;;13.13;5.35;;;;;;;12.37;63.97;98667.28;5090650;28;20489;-47
2023/04/27 04:16:12;;;;;;;7.28;4.25;;;;;;;12.37;63.87;98666.44;5107496;28;20067;-47
2023/04/27 04:18:38;;;;;;;12.10;4.90;;;;;;;12.37;63.85;98671.72;5107558;28;20023;-47
2023/04/27 04:21:04;;;;;;;17.27;6.38;;;;;;;12.38;63.69;98671.50;5091860;28;20116;-47
2023/04/27 04:23:31;;;;;;;5.88;3.88;;;;;;;12.45;63.03;98670.66;5090487;28;20512;-47
2023/04/27 04:25:57;;;;;;;8.02;4.30;;;;;;;12.43;63.21;98668.22;5107826;28;20397;-47
2023/04/27 04:28:24;;;;;;;11.00;4.50;;;;;;;12.31;63.34;98669.94;5096057;28;20024;-47
2023/04/27 04:30:50;;;;;;;10.25;5.35;;;;;;;12.20;63.83;98674.06;5095914;28;20046;-47
2023/04/27 04:33:16;;;;;;;6.30;3.88;;;;;;;12.07;64.08;98682.81;5095905;28;20020;-47
2023/04/27 04:35:42;;;;;;;8.15;4.20;;;;;;;11.96;64.68;98686.09;5095857;28;20093;-47
2023/04/27 04:38:09;;;;;;;12.05;4.30;;;;;;;11.86;64.82;98690.97;5111330;28;20494;-46
2023/04/27 04:40:37;;;;;;;12.50;4.40;;;;;;;11.79;65.05;98694.44;5096002;28;20024;-47
2023/04/27 04:43:04;;;;;;;11.07;4.43;;;;;;;11.74;65.49;98688.19;5095776;28;20051;-47
2023/04/27 04:45:29;;;;;;;19.90;5.03;;;;;;;11.74;65.62;98685.56;5095830;28;20031;-49
2023/04/27 04:47:55;;;;;;;6.82;4.35;;;;;;;11.72;66.27;98691.00;5095992;28;20020;-49
2023/04/27 04:50:22;;;;;;;5.57;4.10;;;;;;;11.72;65.84;98688.38;5111205;28;20032;-49
2023/04/27 04:52:48;;;;;;;8.48;4.80;;;;;;;11.80;66.03;98692.63;5094422;28;20028;-49
2023/04/27 04:55:14;;;;;;;12.38;5.70;;;;;;;11.77;65.50;98699.09;5095556;28;20508;-49
2023/04/27 04:57:40;;;;;;;11.60;4.70;;;;;;;11.71;65.40;98696.47;5095511;28;20024;-49
2023/04/27 05:00:11;;;;;;;10.68;3.97;;;;;;;11.78;65.71;98695.44;5095428;28;20200;-49
2023/04/27 05:02:38;;;;;;;15.07;5.22;;;;;;;12.01;65.11;98694.16;5095383;28;20020;-49
2023/04/27 05:05:04;;;;;;;9.25;4.70;;;;;;;12.30;64.49;98694.66;5095344;28;20253;-49
2023/04/27 05:07:30;;;;;;;13.20;4.50;;;;;;;12.79;63.21;98693.91;5111014;28;20025;-49
2023/04/27 05:09:56;;;;;;;18.30;4.65;;;;;;;13.00;62.19;98689.31;5110851;28;20020;-49
2023/04/27 05:12:22;;;;;;;11.20;5.60;;;;;;;13.09;61.27;98689.81;5076994;28;20115;-47
2023/04/27 05:14:48;;;;;;;32.35;6.40;;;;;;;13.05;61.72;98693.91;5110827;28;20031;-47
2023/04/27 05:17:13;;;;;;;23.30;4.63;;;;;;;13.38;61.83;98696.25;5110784;28;20408;-47
2023/04/27 05:19:39;;;;;;;11.63;4.05;;;;;;;13.86;59.51;98687.63;5095140;28;20028;-47
2023/04/27 05:22:05;;;;;;;24.38;4.82;;;;;;;14.03;59.12;98693.13;5094998;28;20027;-47
2023/04/27 05:24:33;;;;;;;13.95;4.03;;;;;;;14.06;58.67;98694.50;5110714;28;20027;-47
2023/04/27 05:26:58;;;;;;;10.63;4.38;;;;;;;13.90;58.45;98696.69;5076888;28;20020;-47
2023/04/27 05:29:24;;;;;;;10.27;4.70;;;;;;;14.06;58.07;98691.84;5094911;28;20028;-47
2023/04/27 05:31:50;;;;;;;13.77;4.45;;;;;;;14.25;57.33;98690.81;5094757;28;20031;-47
2023/04/27 05:34:16;;;;;;;15.77;5.00;;;;;;;14.73;57.53;98694.41;5094836;28;20073;-47
2023/04/27 05:36:42;;;;;;;9.13;5.82;;;;;;;15.72;54.92;98691.06;5109940;28;20032;-47
2023/04/27 05:39:08;;;;;;;12.25;5.78;;;;;;;16.47;51.75;98690.13;5110143;28;20117;-47
2023/04/27 05:41:34;;;;;;;20.00;5.10;;;;;;;17.15;50.33;98690.19;5094707;28;20035;-47
2023/04/27 05:43:59;;;;;;;11.40;4.18;;;;;;;17.71;48.37;98688.28;5094638;28;20023;-47
2023/04/27 05:46:25;;;;;;;14.48;4.80;;;;;;;18.47;47.12;98686.72;5094568;28;20099;-47
2023/04/27 05:48:51;;;;;;;14.20;4.10;;;;;;;19.22;44.72;98692.94;5094533;28;20024;-47
2023/04/27 05:51:17;;;;;;;17.98;4.45;;;;;;;19.92;42.44;98698.09;5094341;28;20093;-47
2023/04/27 05:53:43;;;;;;;22.45;5.07;;;;;;;20.80;41.35;98693.75;5094423;28;20031;-45
2023/04/27 05:56:10;;;;;;;13.60;5.03;;;;;;;21.23;39.39;98696.91;5094329;28;20020;-45
2023/04/27 05:58:36;;;;;;;12.20;3.67;;;;;;;21.12;39.54;98704.16;5094299;28;20036;-45
2023/04/27 06:01:02;;;;;;;12.80;3.83;;;;;;;21.32;38.28;98704.09;5109918;28;20024;-45
2023/04/27 06:03:30;;;;;;;11.55;4.10;;;;;;;21.00;38.37;98715.09;5094195;28;20057;-45
2023/04/27 06:05:57;;;;;;;11.70;4.47;;;;;;;20.85;38.90;98704.44;5094144;28;20024;-45
2023/04/27 06:08:23;;;;;;;14.65;4.28;;;;;;;20.74;39.81;98717.78;5109784;28;20032;-45
2023/04/27 06:10:52;;;;;;;15.05;4.30;;;;;;;20.99;38.61;98716.19;5093952;28;20509;-45
2023/04/27 06:13:19;;;;;;;9.23;3.47;;;;;;;21.07;38.50;98717.50;5093953;28;20016;-45
2023/04/27 06:15:45;;;;;;;7.35;3.97;;;;;;;21.34;38.04;98726.00;5093849;28;20039;-45
2023/04/27 06:18:12;;;;;;;13.82;4.53;;;;;;;21.59;37.78;98718.22;5109577;28;20059;-45
2023/04/27 06:20:38;;;;;;;16.70;4.22;;;;;;;22.21;36.57;98708.88;5093853;28;20024;-45
2023/04/27 06:23:04;;;;;;;13.52;4.22;;;;;;;22.73;36.88;98709.38;5092644;28;20027;-45
2023/04/27 06:25:30;;;;;;;12.30;3.42;;;;;;;23.75;35.05;98712.19;5093844;28;20024;-45
2023/04/27 06:27:56;;;;;;;10.82;3.55;;;;;;;24.47;33.67;98717.41;5109437;28;20036;-45
2023/04/27 06:30:23;;;;;;;8.65;3.13;;;;;;;25.32;31.68;98704.78;5093658;28;20024;-45
2023/04/27 06:32:50;;;;;;;10.25;3.70;;;;;;;25.20;31.12;98701.78;5093704;28;20504;-45
2023/04/27 06:35:17;;;;;;;8.52;4.38;;;;;;;24.46;32.26;98705.88;5093692;28;20102;-46
2023/04/27 06:37:43;;;;;;;9.20;4.45;;;;;;;24.70;32.21;98705.81;5092546;28;20034;-45
2023/04/27 06:40:10;;;;;;;10.07;3.58;;;;;;;25.14;31.57;98693.00;5093345;28;20055;-45
2023/04/27 06:42:36;;;;;;;12.98;3.90;;;;;;;25.90;30.84;98693.47;5093460;28;20059;-45
2023/04/27 06:45:03;;;;;;;11.20;4.20;;;;;;;26.51;29.75;98685.91;5109132;28;20497;-45
2023/04/27 06:47:29;;;;;;;10.45;4.82;;;;;;;26.85;29.33;98684.59;5093438;28;20016;-45
2023/04/27 06:49:55;;;;;;;14.93;4.15;;;;;;;27.18;29.34;98688.88;5108041;28;20020;-46
2023/04/27 06:52:21;;;;;;;15.75;3.95;;;;;;;27.20;28.50;98692.03;5093327;28;20443;-46
2023/04/27 06:54:47;;;;;;;8.15;3.38;;;;;;;26.57;29.72;98673.13;5093266;28;20031;-46
2023/04/27 06:57:13;;;;;;;13.20;3.78;;;;;;;26.80;29.56;98684.72;5091992;28;20020;-46
2023/04/27 06:59:39;;;;;;;12.95;3.92;;;;;;;26.49;29.76;98685.41;5093128;28;20024;-46
2023/04/27 07:02:06;;;;;;;15.30;4.63;;;;;;;26.47;29.51;98678.75;5093044;28;20535;-46
2023/04/27 07:04:32;;;;;;;16.80;4.25;;;;;;;25.97;29.88;98684.97;5091735;28;20024;-46
2023/04/27 07:06:58;;;;;;;11.48;4.13;;;;;;;25.68;30.56;98696.03;5092970;28;20470;-46
2023/04/27 07:09:24;;;;;;;20.85;4.43;;;;;;;25.87;30.14;98682.47;5108679;28;20064;-46
2023/04/27 07:11:49;;;;;;;20.95;5.00;;;;;;;26.76;29.92;98688.31;5093114;28;20035;-46
2023/04/27 07:14:15;;;;;;;8.65;3.63;;;;;;;27.91;27.93;98683.13;5092871;28;20090;-46
2023/04/27 07:16:43;;;;;;;116.75;8.55;;;;;;;28.31;26.97;98686.47;5091443;28;20085;-46
2023/04/27 07:19:09;;;;;;;100.25;8.02;;;;;;;28.90;26.00;98694.09;5092611;28;20041;-46
2023/04/27 07:21:35;;;;;;;67.70;6.95;;;;;;;29.22;25.05;98683.84;5092683;28;20020;-46
2023/04/27 07:24:02;;;;;;;40.50;5.40;;;;;;;29.78;24.63;98684.56;5074556;28;20073;-46
2023/04/27 07:26:30;;;;;;;33.50;5.18;;;;;;;30.55;23.52;98670.75;5092576;28;20027;-46
2023/04/27 07:28:57;;;;;;;54.53;5.43;;;;;;;31.09;23.30;98666.38;5092520;28;20490;-46
2023/04/27 07:31:22;;;;;;;26.98;4.40;;;;;;;31.98;22.41;98652.91;5074303;28;20028;-46
2023/04/27 07:33:48;;;;;;;86.80;8.25;;;;;;;32.51;22.29;98666.41;5108183;28;20031;-46
2023/04/27 07:36:14;;;;;;;44.42;5.10;;;;;;;33.09;21.42;98662.53;5108089;28;20501;-46
2023/04/27 07:38:40;;;;;;;62.42;7.25;;;;;;;33.56;20.74;98656.22;5091139;28;20128;-46
2023/04/27 07:41:09;;;;;;;28.65;6.85;;;;;;;33.70;20.25;98661.25;5091084;28;20048;-46
2023/04/27 07:43:35;;;;;;;56.80;7.18;;;;;;;33.68;19.90;98664.31;5092322;28;20040;-46
2023/04/27 07:46:01;;;;;;;37.20;6.63;;;;;;;33.99;19.94;98655.25;5092275;28;20027;-46
2023/04/27 07:48:27;;;;;;;13.57;4.47;;;;;;;34.28;19.68;98658.59;5092226;28;20028;-46
2023/04/27 07:50:53;;;;;;;28.70;5.60;;;;;;;34.67;19.82;98655.03;5092113;28;20027;-46
2023/04/27 07:53:20;;;;;;;23.58;5.97;;;;;;;35.07;19.10;98654.56;5092140;28;20131;-46
2023/04/27 07:55:46;;;;;;;28.55;5.57;;;;;;;35.54;19.15;98644.41;5107662;28;20024;-46
2023/04/27 07:58:12;;;;;;;33.05;5.40;;;;;;;36.19;18.32;98644.09;5107731;28;20097;-44
2023/04/27 08:00:38;;;;;;;39.65;5.90;;;;;;;36.70;17.71;98633.72;5091876;28;20024;-44
2023/04/27 08:03:04;;;;;;;33.13;4.65;;;;;;;37.15;17.94;98637.25;5107693;28;20085;-44
2023/04/27 08:05:30;;;;;;;21.88;4.28;;;;;;;37.34;17.10;98642.47;5092077;28;20533;-47
2023/04/27 08:07:55;;;;;;;24.75;4.50;;;;;;;36.99;17.12;98637.50;5091973;28;20405;-46
2023/04/27 08:10:22;;;;;;;37.50;4.85;;;;;;;37.02;17.11;98642.19;5091845;28;20038;-46
2023/04/27 08:12:48;;;;;;;21.65;4.60;;;;;;;37.21;17.32;98638.47;5091902;28;20141;-47
2023/04/27 08:15:14;;;;;;;10.93;3.80;;;;;;;36.87;17.61;98640.53;5091879;28;20024;-47
2023/04/27 08:17:40;;;;;;;15.80;3.42;;;;;;;36.72;17.65;98645.06;5091921;28;20024;-47
2023/04/27 08:20:10;;;;;;;38.03;5.30;;;;;;;36.57;17.80;98644.91;5091770;28;20538;-47
2023/04/27 08:22:40;;;;;;;40.47;5.40;;;;;;;36.47;17.99;98636.59;5091765;28;20024;-47
2023/04/27 08:25:07;;;;;;;24.83;3.58;;;;;;;36.52;18.10;98633.50;5091724;28;20024;-47
2023/04/27 08:27:36;;;;;;;24.55;4.20;;;;;;;36.57;18.01;98635.91;5107461;28;20397;-46
2023/04/27 08:30:02;;;;;;;39.42;5.55;;;;;;;36.72;17.31;98632.16;5091587;28;20154;-46
2023/04/27 08:32:28;;;;;;;17.23;3.45;;;;;;;36.35;17.67;98635.69;5107418;28;20571;-47
2023/04/27 08:34:53;;;;;;;22.08;3.90;;;;;;;35.74;18.25;98645.09;5091742;28;20499;-47
2023/04/27 08:37:19;;;;;;;12.55;3.80;;;;;;;35.85;18.29;98640.53;5107288;28;20028;-47
2023/04/27 08:39:47;;;;;;;16.02;3.72;;;;;;;36.28;18.11;98632.91;5091425;28;20044;-46
2023/04/27 08:42:13;;;;;;;12.88;2.83;;;;;;;36.46;17.95;98635.00;5107253;28;20040;-47
2023/04/27 08:44:43;;;;;;;20.85;2.85;;;;;;;36.70;17.60;98648.16;5091680;28;20024;-44
2023/04/27 08:47:09;;;;;;;18.17;2.72;;;;;;;36.54;17.09;98653.88;5091573;28;20023;-44
2023/04/27 08:49:40;;;;;;;8.02;2.40;;;;;;;36.58;16.71;98645.69;5091556;28;20031;-44
2023/04/27 08:52:13;;;;;;;10.05;2.58;;;;;;;36.96;16.28;98641.75;5091435;28;20028;-47
2023/04/27 08:54:39;;;;;;;8.23;2.28;;;;;;;37.48;16.20;98647.25;5107310;28;20032;-47
2023/04/27 08:57:12;;;;;;;10.38;2.58;;;;;;;37.97;16.21;98640.50;5091477;28;20077;-47
2023/04/27 08:59:39;;;;;;;10.95;2.47;;;;;;;37.73;16.67;98644.69;5073870;28;20023;-47
2023/04/27 09:02:06;;;;;;;20.42;2.45;;;;;;;37.76;15.73;98649.38;5091384;28;20032;-47
2023/04/27 09:04:39;;;;;;;21.92;2.50;;;;;;;37.52;16.15;98652.75;5090302;28;20038;-46
2023/04/27 09:07:16;;;;;;;117.47;7.20;;;;;;;37.76;16.14;98649.38;5091356;28;20036;-47
2023/04/27 09:09:42;;;;;;;74.55;5.28;;;;;;;38.05;15.51;98649.53;5091664;28;20486;-47
2023/04/27 09:12:20;;;;;;;81.18;6.45;;;;;;;39.05;15.36;98640.75;5092143;28;20440;-49
2023/04/27 09:15:04;;;;;;;19.63;2.08;;;;;;;39.81;14.71;98644.16;5095140;28;20024;-49
2023/04/27 09:17:29;;;;;;;;;;;;;;;40.26;15.21;98640.81;5095508;28;20081;-49
2023/04/27 09:20:11;;;;;;;55.05;7.57;;;;;;;39.89;14.74;98642.19;5095062;28;19912;-49
2023/04/27 09:22:46;;;;;;;38.60;4.55;;;;;;;39.50;15.22;98641.09;5094974;28;20043;-49
2023/04/27 09:25:32;;;;;;;41.88;7.75;;;;;;;39.73;14.92;98637.09;5076986;28;20084;-49
2023/04/27 09:28:00;;;;;;;12.77;2.30;;;;;;;39.58;15.01;98641.06;5095116;28;20035;-49
2023/04/27 09:30:27;;;;;;;35.97;4.13;;;;;;;39.88;15.10;98638.63;5094761;28;20035;-49
2023/04/27 09:32:55;;;;;;;35.28;3.00;;;;;;;40.12;14.53;98634.19;5094826;28;20111;-49
2023/04/27 09:35:26;;;;;;;27.10;3.08;;;;;;;39.87;14.55;98642.56;5093472;28;20032;-49
2023/04/27 09:37:53;;;;;;;111.22;9.38;;;;;;;39.12;14.82;98632.50;5094764;28;20039;-49
2023/04/27 09:40:26;;;;;;;36.65;4.53;;;;;;;38.44;15.73;98639.88;5094538;28;20418;-49
2023/04/27 09:43:03;;;;;;;35.90;3.67;;;;;;;38.21;15.53;98645.66;5094690;28;20103;-49
2023/04/27 09:45:29;;;;;;;28.23;3.35;;;;;;;37.88;15.96;98650.22;5110329;28;20493;-49
2023/04/27 09:47:55;;;;;;;28.30;2.83;;;;;;;37.44;16.21;98645.66;5094496;28;20024;-49
2023/04/27 09:50:21;;;;;;;11.65;2.17;;;;;;;36.43;17.41;98644.75;5093092;28;20406;-47
2023/04/27 09:52:46;;;;;;;17.23;2.42;;;;;;;35.39;17.62;98638.72;5094694;28;20028;-47
2023/04/27 09:55:35;;;;;;;17.55;2.25;;;;;;;34.87;18.42;98633.97;5094400;28;20103;-44
2023/04/27 09:58:25;;;;;;;8.13;1.88;;;;;;;34.53;18.84;98639.19;5094335;28;20110;-44
2023/04/27 10:00:57;;;;;;;4.95;1.83;;;;;;;34.12;19.10;98636.06;5109971;28;20024;-43
2023/04/27 10:04:04;;;;;;;7.65;2.03;;;;;;;33.78;19.57;98633.03;5094307;28;20031;-44
2023/04/27 10:06:33;;;;;;;22.58;2.88;;;;;;;33.25;20.61;98646.19;5076964;28;20038;-46
2023/04/27 10:09:04;;;;;;;5.50;1.52;;;;;;;33.09;20.44;98647.00;5109790;28;20512;-46
2023/04/27 10:11:39;;;;;;;6.57;1.75;;;;;;;32.62;21.44;98640.38;5094003;28;20493;-47
2023/04/27 10:14:08;;;;;;;6.80;2.17;;;;;;;32.40;21.54;98641.69;5093997;28;20103;-46
2023/04/27 10:16:51;;;;;;;3.40;1.50;;;;;;;32.54;21.55;98635.03;5092643;28;20020;-46
2023/04/27 10:19:17;;;;;;;4.70;1.60;;;;;;;32.91;21.26;98645.75;5094322;28;20073;-46
2023/04/27 10:22:01;;;;;;;6.78;1.67;;;;;;;33.07;20.86;98643.03;5093881;28;20076;-46
2023/04/27 10:24:36;;;;;;;10.90;2.15;;;;;;;33.50;20.39;98633.16;5076621;28;20024;-46
2023/04/27 10:27:04;;;;;;;7.82;2.00;;;;;;;33.27;20.00;98627.59;5093732;28;20064;-46
2023/04/27 10:29:40;;;;;;;4.85;1.42;;;;;;;32.34;20.95;98621.34;5093769;28;20085;-46
2023/04/27 10:32:22;;;;;;;4.90;1.60;;;;;;;32.07;21.30;98624.84;5093539;28;20043;-46
2023/04/27 10:34:48;;;;;;;5.28;1.55;;;;;;;32.51;20.74;98627.59;5093668;28;20027;-46
2023/04/27 10:37:15;;;;;;;2.28;1.20;;;;;;;33.13;20.13;98619.88;5093613;28;20070;-46
2023/04/27 10:39:42;;;;;;;5.53;1.52;;;;;;;33.39;19.57;98622.03;5097355;28;20044;-46
2023/04/27 10:42:09;;;;;;;3.60;1.20;;;;;;;33.62;19.30;98625.72;5093752;28;20032;-46
2023/04/27 10:44:36;;;;;;;15.00;1.88;;;;;;;33.66;19.26;98619.53;5093465;28;20024;-48
2023/04/27 10:47:13;;;;;;;8.45;1.50;;;;;;;33.69;18.97;98622.34;5092344;28;20030;-46
2023/04/27 10:49:39;;;;;;;8.35;1.40;;;;;;;33.50;19.45;98636.66;5093421;28;20057;-46
2023/04/27 10:52:05;;;;;;;5.97;1.55;;;;;;;33.27;19.25;98625.66;5093205;28;20553;-46
2023/04/27 10:54:32;;;;;;;4.10;1.30;;;;;;;33.07;19.32;98619.34;5093273;28;20563;-46
2023/04/27 10:57:09;;;;;;;3.92;1.35;;;;;;;32.88;19.39;98608.38;5093183;28;20026;-47
2023/04/27 10:59:54;;;;;;;5.75;1.38;;;;;;;33.17;19.14;98610.66;5093071;28;20497;-46
2023/04/27 11:02:28;;;;;;;3.13;1.10;;;;;;;33.34;18.29;98614.94;5093098;28;20031;-46
2023/04/27 11:04:55;;;;;;;3.75;1.00;;;;;;;33.18;19.12;98617.69;5109086;28;20050;-46
2023/04/27 11:07:26;;;;;;;5.40;1.13;;;;;;;33.20;18.79;98607.25;5108908;28;20061;-46
2023/04/27 11:09:52;;;;;;;8.50;1.58;;;;;;;33.48;18.62;98606.31;5075451;28;20444;-46
2023/04/27 11:12:18;;;;;;;9.52;1.50;;;;;;;33.72;18.27;98599.06;5092815;28;20039;-44
2023/04/27 11:14:45;;;;;;;8.13;1.48;;;;;;;34.10;18.14;98595.56;5108831;28;20489;-44
2023/04/27 11:17:12;;;;;;;10.13;1.60;;;;;;;34.28;18.03;98609.53;5092786;28;20099;-44
2023/04/27 11:19:46;;;;;;;7.80;1.02;;;;;;;34.44;18.10;98603.22;5092784;28;20028;-44
2023/04/27 11:22:15;;;;;;;;;;;;;;;34.59;17.94;98600.38;5093127;28;20065;-44
2023/04/27 11:24:51;;;;;;;4.07;1.15;;;;;;;34.11;17.75;98599.06;5092693;28;19912;-44
2023/04/27 11:27:20;;;;;;;3.88;1.23;;;;;;;33.90;17.92;98600.22;5091771;28;20027;-44
2023/04/27 11:29:46;;;;;;;11.43;2.05;;;;;;;33.95;18.13;98596.44;5092637;28;20027;-44